sensor_id;sensor_type;location;lat;lon;timestamp;temperature;humidity
17039;DHT22;8636;55.750;13.202;2023-11-19T00:01:45;2.00;99.90
17039;DHT22;8636;55.750;13.202;2023-11-19T00:04:20;2.00;99.90
17039;DHT22;8636;55.750;13.202;2023-11-19T00:06:48;2.00;99.90
17039;DHT22;8636;55.750;13.202;2023-11-19T00:09:23;1.90;99.90
17039;DHT22;8636;55.750;13.202;2023-11-19T00:11:52;1.80;99.90
17039;DHT22;8636;55.750;13.202;2023-11-19T00:14:33;1.80;99.90
17039;DHT22;8636;55.750;13.202;2023-11-19T00:17:16;1.80;99.90
17039;DHT22;8636;55.750;13.202;2023-11-19T00:19:50;1.80;99.90
17039;DHT22;8636;55.750;13.202;2023-11-19T00:22:18;1.70;99.90
17039;DHT22;8636;55.750;13.202;2023-11-19T00:24:54;1.70;99.90
17039;DHT22;8636;55.750;13.202;2023-11-19T00:27:22;1.70;99.90
17039;DHT22;8636;55.750;13.202;2023-11-19T00:29:56;1.70;99.90
17039;DHT22;8636;55.750;13.202;2023-11-19T00:32:26;1.80;99.90
17039;DHT22;8636;55.750;13.202;2023-11-19T00:35:00;1.80;99.90
17039;DHT22;8636;55.750;13.202;2023-11-19T00:37:31;1.80;99.90
17039;DHT22;8636;55.750;13.202;2023-11-19T00:40:07;1.80;99.90
17039;DHT22;8636;55.750;13.202;2023-11-19T00:42:37;1.90;99.90
17039;DHT22;8636;55.750;13.202;2023-11-19T00:45:11;1.90;99.90
17039;DHT22;8636;55.750;13.202;2023-11-19T00:47:41;2.00;99.90
17039;DHT22;8636;55.750;13.202;2023-11-19T00:50:17;1.90;99.90
17039;DHT22;8636;55.750;13.202;2023-11-19T00:52:45;2.00;99.90
17039;DHT22;8636;55.750;13.202;2023-11-19T00:55:20;2.00;99.90
17039;DHT22;8636;55.750;13.202;2023-11-19T00:57:48;1.90;99.90
17039;DHT22;8636;55.750;13.202;2023-11-19T01:00:22;2.00;99.90
17039;DHT22;8636;55.750;13.202;2023-11-19T01:02:54;2.00;99.90
17039;DHT22;8636;55.750;13.202;2023-11-19T01:05:29;2.10;99.90
17039;DHT22;8636;55.750;13.202;2023-11-19T01:07:57;2.10;99.90
17039;DHT22;8636;55.750;13.202;2023-11-19T01:10:32;2.10;99.90
17039;DHT22;8636;55.750;13.202;2023-11-19T01:13:00;2.20;99.90
17039;DHT22;8636;55.750;13.202;2023-11-19T01:15:43;2.10;99.90
17039;DHT22;8636;55.750;13.202;2023-11-19T01:18:12;2.20;99.90
17039;DHT22;8636;55.750;13.202;2023-11-19T01:20:46;2.10;99.90
17039;DHT22;8636;55.750;13.202;2023-11-19T01:23:14;2.20;99.90
17039;DHT22;8636;55.750;13.202;2023-11-19T01:25:48;2.20;99.90
17039;DHT22;8636;55.750;13.202;2023-11-19T01:28:16;2.20;99.90
17039;DHT22;8636;55.750;13.202;2023-11-19T01:30:50;2.30;99.90
17039;DHT22;8636;55.750;13.202;2023-11-19T01:33:20;2.30;99.90
17039;DHT22;8636;55.750;13.202;2023-11-19T01:35:54;2.30;99.90
17039;DHT22;8636;55.750;13.202;2023-11-19T01:38:25;2.30;99.90
17039;DHT22;8636;55.750;13.202;2023-11-19T01:41:00;2.30;99.90
17039;DHT22;8636;55.750;13.202;2023-11-19T01:43:34;2.30;99.90
17039;DHT22;8636;55.750;13.202;2023-11-19T01:46:08;2.30;99.90
17039;DHT22;8636;55.750;13.202;2023-11-19T01:48:42;2.30;99.90
17039;DHT22;8636;55.750;13.202;2023-11-19T01:51:17;2.40;99.90
17039;DHT22;8636;55.750;13.202;2023-11-19T01:53:45;2.40;99.90
17039;DHT22;8636;55.750;13.202;2023-11-19T01:56:20;2.40;99.90
17039;DHT22;8636;55.750;13.202;2023-11-19T01:58:49;2.40;99.90
17039;DHT22;8636;55.750;13.202;2023-11-19T02:01:24;2.30;99.90
17039;DHT22;8636;55.750;13.202;2023-11-19T02:03:54;2.30;99.90
17039;DHT22;8636;55.750;13.202;2023-11-19T02:06:38;2.30;99.90
17039;DHT22;8636;55.750;13.202;2023-11-19T02:09:08;2.30;99.90
17039;DHT22;8636;55.750;13.202;2023-11-19T02:11:42;2.30;99.90
17039;DHT22;8636;55.750;13.202;2023-11-19T02:14:10;2.40;99.90
17039;DHT22;8636;55.750;13.202;2023-11-19T02:16:44;2.40;99.90
17039;DHT22;8636;55.750;13.202;2023-11-19T02:19:14;2.50;99.90
17039;DHT22;8636;55.750;13.202;2023-11-19T02:21:48;2.50;99.90
17039;DHT22;8636;55.750;13.202;2023-11-19T02:24:17;2.50;99.90
17039;DHT22;8636;55.750;13.202;2023-11-19T02:27:01;2.50;99.90
17039;DHT22;8636;55.750;13.202;2023-11-19T02:29:32;2.60;99.90
17039;DHT22;8636;55.750;13.202;2023-11-19T02:32:08;2.70;99.90
17039;DHT22;8636;55.750;13.202;2023-11-19T02:34:36;2.80;99.90
17039;DHT22;8636;55.750;13.202;2023-11-19T02:37:11;2.90;99.90
17039;DHT22;8636;55.750;13.202;2023-11-19T02:39:41;2.90;99.90
17039;DHT22;8636;55.750;13.202;2023-11-19T02:42:15;2.90;99.90
17039;DHT22;8636;55.750;13.202;2023-11-19T02:44:45;2.90;99.90
17039;DHT22;8636;55.750;13.202;2023-11-19T02:47:21;3.00;99.90
17039;DHT22;8636;55.750;13.202;2023-11-19T02:49:50;3.00;99.90
17039;DHT22;8636;55.750;13.202;2023-11-19T02:52:26;3.00;99.90
17039;DHT22;8636;55.750;13.202;2023-11-19T02:54:54;3.00;99.90
17039;DHT22;8636;55.750;13.202;2023-11-19T02:57:22;3.00;99.90
17039;DHT22;8636;55.750;13.202;2023-11-19T02:59:59;3.10;99.90
17039;DHT22;8636;55.750;13.202;2023-11-19T03:02:27;3.10;99.90
17039;DHT22;8636;55.750;13.202;2023-11-19T03:05:13;3.10;99.90
17039;DHT22;8636;55.750;13.202;2023-11-19T03:07:48;3.20;99.90
17039;DHT22;8636;55.750;13.202;2023-11-19T03:10:16;3.20;99.90
17039;DHT22;8636;55.750;13.202;2023-11-19T03:12:45;3.20;99.90
17039;DHT22;8636;55.750;13.202;2023-11-19T03:15:21;3.20;99.90
17039;DHT22;8636;55.750;13.202;2023-11-19T03:17:48;3.30;99.90
17039;DHT22;8636;55.750;13.202;2023-11-19T03:20:23;3.30;99.90
17039;DHT22;8636;55.750;13.202;2023-11-19T03:22:54;3.40;99.90
17039;DHT22;8636;55.750;13.202;2023-11-19T03:25:28;3.60;99.90
17039;DHT22;8636;55.750;13.202;2023-11-19T03:28:00;3.90;99.90
17039;DHT22;8636;55.750;13.202;2023-11-19T03:30:37;4.00;99.90
17039;DHT22;8636;55.750;13.202;2023-11-19T03:33:05;4.20;99.90
17039;DHT22;8636;55.750;13.202;2023-11-19T03:35:40;4.10;99.90
17039;DHT22;8636;55.750;13.202;2023-11-19T03:38:08;4.10;99.90
17039;DHT22;8636;55.750;13.202;2023-11-19T03:40:42;4.20;99.90
17039;DHT22;8636;55.750;13.202;2023-11-19T03:43:10;4.20;99.90
17039;DHT22;8636;55.750;13.202;2023-11-19T03:45:46;4.20;99.90
17039;DHT22;8636;55.750;13.202;2023-11-19T03:48:15;4.20;99.90
17039;DHT22;8636;55.750;13.202;2023-11-19T03:50:50;4.20;99.90
17039;DHT22;8636;55.750;13.202;2023-11-19T03:53:18;4.20;99.90
17039;DHT22;8636;55.750;13.202;2023-11-19T03:55:53;4.30;99.90
17039;DHT22;8636;55.750;13.202;2023-11-19T03:58:21;4.30;99.90
17039;DHT22;8636;55.750;13.202;2023-11-19T04:00:57;4.30;99.90
17039;DHT22;8636;55.750;13.202;2023-11-19T04:03:25;4.40;99.90
17039;DHT22;8636;55.750;13.202;2023-11-19T04:06:00;4.40;99.90
17039;DHT22;8636;55.750;13.202;2023-11-19T04:08:28;4.40;99.90
17039;DHT22;8636;55.750;13.202;2023-11-19T04:11:03;4.40;99.90
17039;DHT22;8636;55.750;13.202;2023-11-19T04:13:32;4.30;99.90
17039;DHT22;8636;55.750;13.202;2023-11-19T04:16:08;4.30;99.90
17039;DHT22;8636;55.750;13.202;2023-11-19T04:18:36;4.40;99.90
17039;DHT22;8636;55.750;13.202;2023-11-19T04:21:10;4.40;99.90
17039;DHT22;8636;55.750;13.202;2023-11-19T04:23:38;4.40;99.90
17039;DHT22;8636;55.750;13.202;2023-11-19T04:26:12;4.40;99.90
17039;DHT22;8636;55.750;13.202;2023-11-19T04:28:40;4.40;99.90
17039;DHT22;8636;55.750;13.202;2023-11-19T04:31:15;4.40;99.90
17039;DHT22;8636;55.750;13.202;2023-11-19T04:33:44;4.40;99.90
17039;DHT22;8636;55.750;13.202;2023-11-19T04:36:18;4.40;99.90
17039;DHT22;8636;55.750;13.202;2023-11-19T04:38:46;4.40;99.90
17039;DHT22;8636;55.750;13.202;2023-11-19T04:41:21;4.50;99.90
17039;DHT22;8636;55.750;13.202;2023-11-19T04:43:49;4.50;99.90
17039;DHT22;8636;55.750;13.202;2023-11-19T04:46:24;4.50;99.90
17039;DHT22;8636;55.750;13.202;2023-11-19T04:48:53;4.50;99.90
17039;DHT22;8636;55.750;13.202;2023-11-19T04:51:27;4.50;99.90
17039;DHT22;8636;55.750;13.202;2023-11-19T04:53:55;4.50;99.90
17039;DHT22;8636;55.750;13.202;2023-11-19T04:56:30;4.50;99.90
17039;DHT22;8636;55.750;13.202;2023-11-19T04:58:58;4.40;99.90
17039;DHT22;8636;55.750;13.202;2023-11-19T05:01:34;4.50;99.90
17039;DHT22;8636;55.750;13.202;2023-11-19T05:04:02;4.50;99.90
17039;DHT22;8636;55.750;13.202;2023-11-19T05:06:50;4.50;99.90
17039;DHT22;8636;55.750;13.202;2023-11-19T05:09:18;4.50;99.90
17039;DHT22;8636;55.750;13.202;2023-11-19T05:11:52;4.60;99.90
17039;DHT22;8636;55.750;13.202;2023-11-19T05:14:20;4.50;99.90
17039;DHT22;8636;55.750;13.202;2023-11-19T05:16:56;4.50;99.90
17039;DHT22;8636;55.750;13.202;2023-11-19T05:19:24;4.50;99.90
17039;DHT22;8636;55.750;13.202;2023-11-19T05:21:59;4.60;99.90
17039;DHT22;8636;55.750;13.202;2023-11-19T05:24:27;4.50;99.90
17039;DHT22;8636;55.750;13.202;2023-11-19T05:27:02;4.50;99.90
17039;DHT22;8636;55.750;13.202;2023-11-19T05:29:30;4.60;99.90
17039;DHT22;8636;55.750;13.202;2023-11-19T05:32:06;4.60;99.90
17039;DHT22;8636;55.750;13.202;2023-11-19T05:34:34;4.60;99.90
17039;DHT22;8636;55.750;13.202;2023-11-19T05:37:11;4.60;99.90
17039;DHT22;8636;55.750;13.202;2023-11-19T05:39:39;4.70;99.90
17039;DHT22;8636;55.750;13.202;2023-11-19T05:42:13;4.70;99.90
17039;DHT22;8636;55.750;13.202;2023-11-19T05:44:41;4.70;99.90
17039;DHT22;8636;55.750;13.202;2023-11-19T05:47:16;4.60;99.90
17039;DHT22;8636;55.750;13.202;2023-11-19T05:49:44;4.70;99.90
17039;DHT22;8636;55.750;13.202;2023-11-19T05:52:19;4.60;99.90
17039;DHT22;8636;55.750;13.202;2023-11-19T05:54:48;4.60;99.90
17039;DHT22;8636;55.750;13.202;2023-11-19T05:57:24;4.50;99.90
17039;DHT22;8636;55.750;13.202;2023-11-19T05:59:52;4.60;99.90
17039;DHT22;8636;55.750;13.202;2023-11-19T06:02:28;4.60;99.90
17039;DHT22;8636;55.750;13.202;2023-11-19T06:04:56;4.60;99.90
17039;DHT22;8636;55.750;13.202;2023-11-19T06:07:39;4.60;99.90
17039;DHT22;8636;55.750;13.202;2023-11-19T06:10:08;4.50;99.90
17039;DHT22;8636;55.750;13.202;2023-11-19T06:12:44;4.60;99.90
17039;DHT22;8636;55.750;13.202;2023-11-19T06:15:13;4.50;99.90
17039;DHT22;8636;55.750;13.202;2023-11-19T06:17:49;4.50;99.90
17039;DHT22;8636;55.750;13.202;2023-11-19T06:20:17;4.50;99.90
17039;DHT22;8636;55.750;13.202;2023-11-19T06:22:46;4.50;99.90
17039;DHT22;8636;55.750;13.202;2023-11-19T06:25:20;4.50;99.90
17039;DHT22;8636;55.750;13.202;2023-11-19T06:27:48;4.50;99.90
17039;DHT22;8636;55.750;13.202;2023-11-19T06:30:22;4.50;99.90
17039;DHT22;8636;55.750;13.202;2023-11-19T06:32:51;4.60;99.90
17039;DHT22;8636;55.750;13.202;2023-11-19T06:35:27;4.50;99.90
17039;DHT22;8636;55.750;13.202;2023-11-19T06:37:56;4.60;99.90
17039;DHT22;8636;55.750;13.202;2023-11-19T06:40:33;4.60;99.90
17039;DHT22;8636;55.750;13.202;2023-11-19T06:43:02;4.70;99.90
17039;DHT22;8636;55.750;13.202;2023-11-19T06:45:36;4.60;99.90
17039;DHT22;8636;55.750;13.202;2023-11-19T06:48:06;4.60;99.90
17039;DHT22;8636;55.750;13.202;2023-11-19T06:50:40;4.70;99.90
17039;DHT22;8636;55.750;13.202;2023-11-19T06:53:08;4.70;99.90
17039;DHT22;8636;55.750;13.202;2023-11-19T06:55:43;4.70;99.90
17039;DHT22;8636;55.750;13.202;2023-11-19T06:58:11;4.70;99.90
17039;DHT22;8636;55.750;13.202;2023-11-19T07:00:46;4.70;99.90
17039;DHT22;8636;55.750;13.202;2023-11-19T07:03:17;4.80;99.90
17039;DHT22;8636;55.750;13.202;2023-11-19T07:06:00;4.90;99.90
17039;DHT22;8636;55.750;13.202;2023-11-19T07:08:28;4.90;99.90
17039;DHT22;8636;55.750;13.202;2023-11-19T07:11:02;4.90;99.90
17039;DHT22;8636;55.750;13.202;2023-11-19T07:13:30;4.90;99.90
17039;DHT22;8636;55.750;13.202;2023-11-19T07:16:07;4.90;99.90
17039;DHT22;8636;55.750;13.202;2023-11-19T07:18:38;4.90;99.90
17039;DHT22;8636;55.750;13.202;2023-11-19T07:21:12;4.90;99.90
17039;DHT22;8636;55.750;13.202;2023-11-19T07:23:40;5.00;99.90
17039;DHT22;8636;55.750;13.202;2023-11-19T07:26:15;5.10;99.90
17039;DHT22;8636;55.750;13.202;2023-11-19T07:28:43;5.10;99.90
17039;DHT22;8636;55.750;13.202;2023-11-19T07:31:18;5.10;99.90
17039;DHT22;8636;55.750;13.202;2023-11-19T07:33:48;5.10;99.90
17039;DHT22;8636;55.750;13.202;2023-11-19T07:36:22;5.10;99.90
17039;DHT22;8636;55.750;13.202;2023-11-19T07:38:50;5.20;99.90
17039;DHT22;8636;55.750;13.202;2023-11-19T07:41:30;5.20;99.90
17039;DHT22;8636;55.750;13.202;2023-11-19T07:43:59;5.10;99.90
17039;DHT22;8636;55.750;13.202;2023-11-19T07:46:33;5.10;99.90
17039;DHT22;8636;55.750;13.202;2023-11-19T07:49:03;5.10;99.90
17039;DHT22;8636;55.750;13.202;2023-11-19T07:51:37;5.10;99.90
17039;DHT22;8636;55.750;13.202;2023-11-19T07:54:05;5.10;99.90
17039;DHT22;8636;55.750;13.202;2023-11-19T07:56:40;5.10;99.90
17039;DHT22;8636;55.750;13.202;2023-11-19T07:59:08;5.10;99.90
17039;DHT22;8636;55.750;13.202;2023-11-19T08:01:43;5.10;99.90
17039;DHT22;8636;55.750;13.202;2023-11-19T08:04:12;5.10;99.90
17039;DHT22;8636;55.750;13.202;2023-11-19T08:06:47;5.10;99.90
17039;DHT22;8636;55.750;13.202;2023-11-19T08:09:21;5.10;99.90
17039;DHT22;8636;55.750;13.202;2023-11-19T08:11:56;5.10;99.90
17039;DHT22;8636;55.750;13.202;2023-11-19T08:14:24;5.10;99.90
17039;DHT22;8636;55.750;13.202;2023-11-19T08:16:58;5.10;99.90
17039;DHT22;8636;55.750;13.202;2023-11-19T08:19:27;5.10;99.90
17039;DHT22;8636;55.750;13.202;2023-11-19T08:22:02;5.10;99.90
17039;DHT22;8636;55.750;13.202;2023-11-19T08:24:30;5.10;99.90
17039;DHT22;8636;55.750;13.202;2023-11-19T08:27:04;5.00;99.90
17039;DHT22;8636;55.750;13.202;2023-11-19T08:29:32;5.00;99.90
17039;DHT22;8636;55.750;13.202;2023-11-19T08:32:07;5.00;99.90
17039;DHT22;8636;55.750;13.202;2023-11-19T08:34:36;5.00;99.90
17039;DHT22;8636;55.750;13.202;2023-11-19T08:37:11;5.00;99.90
17039;DHT22;8636;55.750;13.202;2023-11-19T08:39:39;5.00;99.90
17039;DHT22;8636;55.750;13.202;2023-11-19T08:42:15;5.00;99.90
17039;DHT22;8636;55.750;13.202;2023-11-19T08:44:43;5.00;99.90
17039;DHT22;8636;55.750;13.202;2023-11-19T08:47:20;4.90;99.90
17039;DHT22;8636;55.750;13.202;2023-11-19T08:49:52;4.90;99.90
17039;DHT22;8636;55.750;13.202;2023-11-19T08:52:30;4.90;99.90
17039;DHT22;8636;55.750;13.202;2023-11-19T08:55:01;4.90;99.90
17039;DHT22;8636;55.750;13.202;2023-11-19T08:57:35;5.00;99.90
17039;DHT22;8636;55.750;13.202;2023-11-19T09:00:04;5.00;99.90
17039;DHT22;8636;55.750;13.202;2023-11-19T09:02:40;5.00;99.90
17039;DHT22;8636;55.750;13.202;2023-11-19T09:05:17;5.00;99.90
17039;DHT22;8636;55.750;13.202;2023-11-19T09:07:52;5.00;99.90
17039;DHT22;8636;55.750;13.202;2023-11-19T09:10:20;5.00;99.90
17039;DHT22;8636;55.750;13.202;2023-11-19T09:12:54;5.00;99.90
17039;DHT22;8636;55.750;13.202;2023-11-19T09:15:24;4.90;99.90
17039;DHT22;8636;55.750;13.202;2023-11-19T09:17:59;4.90;99.90
17039;DHT22;8636;55.750;13.202;2023-11-19T09:20:28;4.90;99.90
17039;DHT22;8636;55.750;13.202;2023-11-19T09:23:10;4.90;99.90
17039;DHT22;8636;55.750;13.202;2023-11-19T09:25:39;4.90;99.90
17039;DHT22;8636;55.750;13.202;2023-11-19T09:28:13;4.90;99.90
17039;DHT22;8636;55.750;13.202;2023-11-19T09:30:42;4.90;99.90
17039;DHT22;8636;55.750;13.202;2023-11-19T09:33:16;4.90;99.90
17039;DHT22;8636;55.750;13.202;2023-11-19T09:35:46;4.90;99.90
17039;DHT22;8636;55.750;13.202;2023-11-19T09:38:22;4.90;99.90
17039;DHT22;8636;55.750;13.202;2023-11-19T09:40:50;4.90;99.90
17039;DHT22;8636;55.750;13.202;2023-11-19T09:43:27;4.90;99.90
17039;DHT22;8636;55.750;13.202;2023-11-19T09:45:56;4.90;99.90
17039;DHT22;8636;55.750;13.202;2023-11-19T09:48:32;4.90;99.90
17039;DHT22;8636;55.750;13.202;2023-11-19T09:51:02;4.90;99.90
17039;DHT22;8636;55.750;13.202;2023-11-19T09:53:37;5.00;99.90
17039;DHT22;8636;55.750;13.202;2023-11-19T09:56:06;5.00;99.90
17039;DHT22;8636;55.750;13.202;2023-11-19T09:58:41;4.90;99.90
17039;DHT22;8636;55.750;13.202;2023-11-19T10:01:09;5.00;99.90
17039;DHT22;8636;55.750;13.202;2023-11-19T10:03:55;5.00;99.90
17039;DHT22;8636;55.750;13.202;2023-11-19T10:06:37;5.00;99.90
17039;DHT22;8636;55.750;13.202;2023-11-19T10:09:12;5.00;99.90
17039;DHT22;8636;55.750;13.202;2023-11-19T10:11:48;4.90;99.90
17039;DHT22;8636;55.750;13.202;2023-11-19T10:14:24;4.90;99.90
17039;DHT22;8636;55.750;13.202;2023-11-19T10:16:54;4.90;99.90
17039;DHT22;8636;55.750;13.202;2023-11-19T10:19:34;4.90;99.90
17039;DHT22;8636;55.750;13.202;2023-11-19T10:22:10;4.90;99.90
17039;DHT22;8636;55.750;13.202;2023-11-19T10:24:45;4.90;99.90
17039;DHT22;8636;55.750;13.202;2023-11-19T10:27:20;4.90;99.90
17039;DHT22;8636;55.750;13.202;2023-11-19T10:29:54;4.90;99.90
17039;DHT22;8636;55.750;13.202;2023-11-19T10:32:26;4.90;99.90
17039;DHT22;8636;55.750;13.202;2023-11-19T10:35:05;5.00;99.90
17039;DHT22;8636;55.750;13.202;2023-11-19T10:37:35;5.10;99.90
17039;DHT22;8636;55.750;13.202;2023-11-19T10:40:11;5.10;99.90
17039;DHT22;8636;55.750;13.202;2023-11-19T10:42:40;5.10;99.90
17039;DHT22;8636;55.750;13.202;2023-11-19T10:45:22;5.10;99.90
17039;DHT22;8636;55.750;13.202;2023-11-19T10:47:51;5.00;99.90
17039;DHT22;8636;55.750;13.202;2023-11-19T10:50:26;5.00;99.90
17039;DHT22;8636;55.750;13.202;2023-11-19T10:52:57;4.90;99.90
17039;DHT22;8636;55.750;13.202;2023-11-19T10:55:33;4.90;99.90
17039;DHT22;8636;55.750;13.202;2023-11-19T10:58:03;4.90;99.90
17039;DHT22;8636;55.750;13.202;2023-11-19T11:00:42;4.90;99.90
17039;DHT22;8636;55.750;13.202;2023-11-19T11:03:16;4.90;99.90
17039;DHT22;8636;55.750;13.202;2023-11-19T11:05:57;4.90;99.90
17039;DHT22;8636;55.750;13.202;2023-11-19T11:08:27;4.80;99.90
17039;DHT22;8636;55.750;13.202;2023-11-19T11:11:03;4.70;99.90
17039;DHT22;8636;55.750;13.202;2023-11-19T11:13:33;4.70;99.90
17039;DHT22;8636;55.750;13.202;2023-11-19T11:16:08;4.70;99.90
17039;DHT22;8636;55.750;13.202;2023-11-19T11:18:36;4.70;99.90
17039;DHT22;8636;55.750;13.202;2023-11-19T11:21:15;4.70;99.90
17039;DHT22;8636;55.750;13.202;2023-11-19T11:24:06;4.60;99.90
17039;DHT22;8636;55.750;13.202;2023-11-19T11:26:58;4.60;99.90
17039;DHT22;8636;55.750;13.202;2023-11-19T11:29:37;4.60;99.90
17039;DHT22;8636;55.750;13.202;2023-11-19T11:32:24;4.60;99.90
17039;DHT22;8636;55.750;13.202;2023-11-19T11:35:12;4.60;99.90
17039;DHT22;8636;55.750;13.202;2023-11-19T11:37:58;4.60;99.90
17039;DHT22;8636;55.750;13.202;2023-11-19T11:40:29;4.60;99.90
17039;DHT22;8636;55.750;13.202;2023-11-19T11:43:04;4.60;99.90
17039;DHT22;8636;55.750;13.202;2023-11-19T11:45:52;4.50;99.90
17039;DHT22;8636;55.750;13.202;2023-11-19T11:48:28;4.50;99.90
17039;DHT22;8636;55.750;13.202;2023-11-19T11:50:58;4.50;99.90
17039;DHT22;8636;55.750;13.202;2023-11-19T11:53:35;4.60;99.90
17039;DHT22;8636;55.750;13.202;2023-11-19T11:56:05;4.60;99.90
17039;DHT22;8636;55.750;13.202;2023-11-19T11:58:41;4.50;99.90
17039;DHT22;8636;55.750;13.202;2023-11-19T12:01:15;4.60;99.90
17039;DHT22;8636;55.750;13.202;2023-11-19T12:03:55;4.60;99.90
17039;DHT22;8636;55.750;13.202;2023-11-19T12:06:37;4.50;99.90
17039;DHT22;8636;55.750;13.202;2023-11-19T12:09:11;4.50;99.90
17039;DHT22;8636;55.750;13.202;2023-11-19T12:11:47;4.50;99.90
17039;DHT22;8636;55.750;13.202;2023-11-19T12:15:00;4.50;99.90
17039;DHT22;8636;55.750;13.202;2023-11-19T12:17:46;4.50;99.90
17039;DHT22;8636;55.750;13.202;2023-11-19T12:20:27;4.50;99.90
17039;DHT22;8636;55.750;13.202;2023-11-19T12:23:04;4.50;99.90
17039;DHT22;8636;55.750;13.202;2023-11-19T12:25:34;4.50;99.90
17039;DHT22;8636;55.750;13.202;2023-11-19T12:28:13;4.50;99.90
17039;DHT22;8636;55.750;13.202;2023-11-19T12:30:41;4.40;99.90
17039;DHT22;8636;55.750;13.202;2023-11-19T12:33:15;4.50;99.90
17039;DHT22;8636;55.750;13.202;2023-11-19T12:35:44;4.50;99.90
17039;DHT22;8636;55.750;13.202;2023-11-19T12:38:21;4.40;99.90
17039;DHT22;8636;55.750;13.202;2023-11-19T12:41:02;4.40;99.90
17039;DHT22;8636;55.750;13.202;2023-11-19T12:43:39;4.40;99.90
17039;DHT22;8636;55.750;13.202;2023-11-19T12:46:20;4.40;99.90
17039;DHT22;8636;55.750;13.202;2023-11-19T12:48:54;4.40;99.90
17039;DHT22;8636;55.750;13.202;2023-11-19T12:51:22;4.40;99.90
17039;DHT22;8636;55.750;13.202;2023-11-19T12:54:04;4.40;99.90
17039;DHT22;8636;55.750;13.202;2023-11-19T12:56:32;4.30;99.90
17039;DHT22;8636;55.750;13.202;2023-11-19T12:59:12;4.30;99.90
17039;DHT22;8636;55.750;13.202;2023-11-19T13:01:42;4.30;99.90
17039;DHT22;8636;55.750;13.202;2023-11-19T13:04:28;4.20;99.90
17039;DHT22;8636;55.750;13.202;2023-11-19T13:07:09;4.20;99.90
17039;DHT22;8636;55.750;13.202;2023-11-19T13:09:43;4.20;99.90
17039;DHT22;8636;55.750;13.202;2023-11-19T13:12:15;4.20;99.90
17039;DHT22;8636;55.750;13.202;2023-11-19T13:14:51;4.20;99.90
17039;DHT22;8636;55.750;13.202;2023-11-19T13:17:20;4.20;99.90
17039;DHT22;8636;55.750;13.202;2023-11-19T13:19:54;4.20;99.90
17039;DHT22;8636;55.750;13.202;2023-11-19T13:22:23;4.20;99.90
17039;DHT22;8636;55.750;13.202;2023-11-19T13:24:57;4.20;99.90
17039;DHT22;8636;55.750;13.202;2023-11-19T13:27:25;4.20;99.90
17039;DHT22;8636;55.750;13.202;2023-11-19T13:30:04;4.20;99.90
17039;DHT22;8636;55.750;13.202;2023-11-19T13:32:33;4.20;99.90
17039;DHT22;8636;55.750;13.202;2023-11-19T13:35:08;4.20;99.90
17039;DHT22;8636;55.750;13.202;2023-11-19T13:37:36;4.20;99.90
17039;DHT22;8636;55.750;13.202;2023-11-19T13:40:11;4.20;99.90
17039;DHT22;8636;55.750;13.202;2023-11-19T13:42:41;4.20;99.90
17039;DHT22;8636;55.750;13.202;2023-11-19T13:45:17;4.20;99.90
17039;DHT22;8636;55.750;13.202;2023-11-19T13:47:47;4.20;99.90
17039;DHT22;8636;55.750;13.202;2023-11-19T13:50:21;4.20;99.90
17039;DHT22;8636;55.750;13.202;2023-11-19T13:52:50;4.20;99.90
17039;DHT22;8636;55.750;13.202;2023-11-19T13:55:24;4.20;99.90
17039;DHT22;8636;55.750;13.202;2023-11-19T13:57:52;4.20;99.90
17039;DHT22;8636;55.750;13.202;2023-11-19T14:00:29;4.10;99.90
17039;DHT22;8636;55.750;13.202;2023-11-19T14:02:57;4.10;99.90
17039;DHT22;8636;55.750;13.202;2023-11-19T14:05:32;4.10;99.90
17039;DHT22;8636;55.750;13.202;2023-11-19T14:08:08;4.20;99.90
17039;DHT22;8636;55.750;13.202;2023-11-19T14:10:52;4.10;99.90
17039;DHT22;8636;55.750;13.202;2023-11-19T14:13:22;4.10;99.90
17039;DHT22;8636;55.750;13.202;2023-11-19T14:15:59;4.10;99.90
17039;DHT22;8636;55.750;13.202;2023-11-19T14:18:27;4.10;99.90
17039;DHT22;8636;55.750;13.202;2023-11-19T14:21:03;4.20;99.90
17039;DHT22;8636;55.750;13.202;2023-11-19T14:23:31;4.20;99.90
17039;DHT22;8636;55.750;13.202;2023-11-19T14:26:06;4.20;99.90
17039;DHT22;8636;55.750;13.202;2023-11-19T14:28:34;4.10;99.90
17039;DHT22;8636;55.750;13.202;2023-11-19T14:31:12;4.10;99.90
17039;DHT22;8636;55.750;13.202;2023-11-19T14:33:41;4.10;99.90
17039;DHT22;8636;55.750;13.202;2023-11-19T14:36:16;4.10;99.90
17039;DHT22;8636;55.750;13.202;2023-11-19T14:38:43;4.10;99.90
17039;DHT22;8636;55.750;13.202;2023-11-19T14:41:18;4.10;99.90
17039;DHT22;8636;55.750;13.202;2023-11-19T14:43:46;4.10;99.90
17039;DHT22;8636;55.750;13.202;2023-11-19T14:46:23;4.10;99.90
17039;DHT22;8636;55.750;13.202;2023-11-19T14:48:51;4.10;99.90
17039;DHT22;8636;55.750;13.202;2023-11-19T14:51:26;4.10;99.90
17039;DHT22;8636;55.750;13.202;2023-11-19T14:53:54;4.10;99.90
17039;DHT22;8636;55.750;13.202;2023-11-19T14:56:28;4.10;99.90
17039;DHT22;8636;55.750;13.202;2023-11-19T14:58:56;4.10;99.90
17039;DHT22;8636;55.750;13.202;2023-11-19T15:01:33;4.10;99.90
17039;DHT22;8636;55.750;13.202;2023-11-19T15:04:01;4.10;99.90
17039;DHT22;8636;55.750;13.202;2023-11-19T15:06:42;4.10;99.90
17039;DHT22;8636;55.750;13.202;2023-11-19T15:09:10;4.10;99.90
17039;DHT22;8636;55.750;13.202;2023-11-19T15:11:49;4.10;99.90
17039;DHT22;8636;55.750;13.202;2023-11-19T15:14:17;4.10;99.90
17039;DHT22;8636;55.750;13.202;2023-11-19T15:16:55;4.10;99.90
17039;DHT22;8636;55.750;13.202;2023-11-19T15:19:24;4.10;99.90
17039;DHT22;8636;55.750;13.202;2023-11-19T15:21:58;4.10;99.90
17039;DHT22;8636;55.750;13.202;2023-11-19T15:24:26;4.00;99.90
17039;DHT22;8636;55.750;13.202;2023-11-19T15:27:01;4.00;99.90
17039;DHT22;8636;55.750;13.202;2023-11-19T15:29:33;4.10;99.90
17039;DHT22;8636;55.750;13.202;2023-11-19T15:32:09;4.10;99.90
17039;DHT22;8636;55.750;13.202;2023-11-19T15:34:37;4.00;99.90
17039;DHT22;8636;55.750;13.202;2023-11-19T15:37:12;4.10;99.90
17039;DHT22;8636;55.750;13.202;2023-11-19T15:39:42;4.00;99.90
17039;DHT22;8636;55.750;13.202;2023-11-19T15:42:18;4.00;99.90
17039;DHT22;8636;55.750;13.202;2023-11-19T15:44:46;4.00;99.90
17039;DHT22;8636;55.750;13.202;2023-11-19T15:47:22;4.00;99.90
17039;DHT22;8636;55.750;13.202;2023-11-19T15:49:50;4.00;99.90
17039;DHT22;8636;55.750;13.202;2023-11-19T15:52:24;4.00;99.90
17039;DHT22;8636;55.750;13.202;2023-11-19T15:54:53;4.00;99.90
17039;DHT22;8636;55.750;13.202;2023-11-19T15:57:27;4.00;99.90
17039;DHT22;8636;55.750;13.202;2023-11-19T15:59:55;4.00;99.90
17039;DHT22;8636;55.750;13.202;2023-11-19T16:02:31;4.00;99.90
17039;DHT22;8636;55.750;13.202;2023-11-19T16:04:59;4.00;99.90
17039;DHT22;8636;55.750;13.202;2023-11-19T16:07:41;4.00;99.90
17039;DHT22;8636;55.750;13.202;2023-11-19T16:10:10;4.00;99.90
17039;DHT22;8636;55.750;13.202;2023-11-19T16:12:47;4.00;99.90
17039;DHT22;8636;55.750;13.202;2023-11-19T16:15:15;4.00;99.90
17039;DHT22;8636;55.750;13.202;2023-11-19T16:17:55;4.00;99.90
17039;DHT22;8636;55.750;13.202;2023-11-19T16:20:24;4.00;99.90
17039;DHT22;8636;55.750;13.202;2023-11-19T16:22:58;4.00;99.90